Главная страница
METAR-TAF:

METAR-TAF

Аэропорты :

Гётеборг-Ландветтер, Швеция

широта: 57-40N, долгота: 012-18E, высота над уровнем моря: 169 м

Текущие метеонаблюдения

Эта сводка был подготовлена 32 минут назад, в 17:50 UTC
Ветер 15 Узел от западный с порывами до 25 Узел
Температура 4°C
Влажность 75%
Давление 1022 hPa
Видимость 10 км и более
небольшая облачность на высоте 1900 фута

METAR: ESGG 231750Z 26015G25KT 9999 FEW019 04/00 Q1022 R21/19//95

Время: 19:22 (18:22 UTC)

Прогноз

Эта сводка был подготовлена 52 минут назад, в 17:30 UTC
Прогноз действительный с 23-го 18 UTC до 24-го 18 UTC
Ветер 17 Узел от западный с порывами до 30 Узел
Видимость 10 км и более
Отдельные облака на высоте 2500 фута
изменения
С 23-го 23 UTC до 24-го 01 UTC
Ветер 10 Узел от западный
Вероятность 40%
С 24-го 14 UTC до 24-го 18 UTC
Видимость: 4000 м
Рассеянная облачность на высоте 1400 фута
небольшой морось

TAF: ESGG 231730Z 2318/2418 26017G30KT 9999 SCT025 BECMG 2323/2401 28010KT PROB40 2414/2418 4000 -DZ BKN014

Метеонаблюдения и прогнозы для более 4000 аэропортов (сводки METAR и TAF).

Имеющиеся станции представлены на карте желтыми и красными точками.

Чтобы увидеть название станции, наведите на нее мышь.

Затем щелкните, чтобы увидеть метеонаблюдения и метеопрогнозы.

Управление картой: чтобы увеличить масштаб, щелкните зеленые кнопки с черным крестиком; чтобы уменьшить масштаб, щелкните зеленую кнопку с тире; для просмотра соседних карт щелкайте зеленые стрелки.


METAR-TAF: